Time;durP1;ratioP1;P1;durP2;ratioP2;P2;SDS_P1;SDS_P2;PMS_P1;PMS_P2;Temp;Humidity;BMP_temperature;BMP_pressure;BME280_temperature;BME280_humidity;BME280_pressure;Samples;Min_cycle;Max_cycle;Signal;HPM_P1;HPM_P2
2021/07/02 00:02:06;;;;;;;0.70;0.60;;;13.80;99.90;;;-143.50;100.00;58913.53;4995056;28;20472;-78
2021/07/02 00:04:34;;;;;;;0.70;0.60;;;13.90;99.90;;;-143.50;100.00;58913.53;4991191;28;20445;-79
2021/07/02 00:07:03;;;;;;;0.70;0.60;;;13.90;99.90;;;-143.50;100.00;58913.53;5019645;28;20488;-78
2021/07/02 00:09:31;;;;;;;0.90;0.90;;;13.90;99.90;;;-143.50;100.00;58913.53;4995058;28;20501;-78
2021/07/02 00:11:58;;;;;;;0.70;0.70;;;13.90;99.90;;;-143.50;100.00;58913.53;4994692;28;21004;-78
2021/07/02 00:14:26;;;;;;;0.70;0.70;;;13.90;99.90;;;-143.50;100.00;58913.53;4992671;28;20928;-78
2021/07/02 00:16:53;;;;;;;0.87;0.83;;;13.90;99.90;;;-143.50;100.00;58913.53;4977000;28;20966;-78
2021/07/02 00:19:23;;;;;;;0.70;0.60;;;13.90;99.90;;;-143.50;100.00;58913.53;4994576;28;20458;-79
2021/07/02 00:21:50;;;;;;;0.70;0.70;;;13.80;99.90;;;-143.50;100.00;58913.53;4994719;28;20937;-78
2021/07/02 00:24:19;;;;;;;0.70;0.60;;;13.90;99.90;;;-143.50;100.00;58913.53;5025862;28;20500;-78
2021/07/02 00:26:47;;;;;;;0.70;0.60;;;13.90;99.90;;;-143.50;100.00;58913.53;4993051;28;20437;-78
2021/07/02 00:29:14;;;;;;;0.70;0.60;;;13.90;99.90;;;-143.50;100.00;58913.53;4994447;28;20430;-77
2021/07/02 00:31:41;;;;;;;0.70;0.70;;;13.90;99.90;;;-143.50;100.00;58913.53;4994134;28;20418;-78
2021/07/02 00:34:09;;;;;;;0.70;0.70;;;13.80;99.90;;;-143.50;100.00;58913.53;4994146;28;20557;-78
2021/07/02 00:36:37;;;;;;;0.70;0.70;;;13.80;99.90;;;-143.50;100.00;58913.53;4992551;28;20449;-78
2021/07/02 00:39:07;;;;;;;0.70;0.63;;;13.80;99.90;;;-143.50;100.00;58913.53;5009241;28;20561;-78
2021/07/02 00:41:37;;;;;;;0.70;0.60;;;13.80;99.90;;;-143.50;100.00;58913.53;4993322;28;20944;-77
2021/07/02 00:44:06;;;;;;;0.70;0.60;;;13.80;99.90;;;-143.50;100.00;58913.53;4993262;28;20453;-77
2021/07/02 00:46:34;;;;;;;0.80;0.80;;;13.80;99.90;;;-143.50;100.00;58913.53;4993462;28;20483;-77
2021/07/02 00:49:02;;;;;;;0.70;0.70;;;13.80;99.90;;;-143.50;100.00;58913.53;4994501;28;20436;-78
2021/07/02 00:51:31;;;;;;;0.70;0.70;;;13.80;99.90;;;-143.50;100.00;58913.53;4992963;28;20447;-77
2021/07/02 00:54:00;;;;;;;0.70;0.70;;;13.80;99.90;;;-143.50;100.00;58913.53;5008674;28;20469;-77
2021/07/02 00:56:29;;;;;;;0.70;0.70;;;13.80;99.90;;;-143.50;100.00;58913.53;4992030;28;20808;-77
2021/07/02 00:58:58;;;;;;;0.70;0.70;;;13.90;99.90;;;-143.50;100.00;58913.53;4994219;28;20459;-77
2021/07/02 01:01:30;;;;;;;0.70;0.60;;;13.90;99.90;;;-143.50;100.00;58913.53;4976756;28;21034;-77
2021/07/02 01:04:03;;;;;;;0.70;0.67;;;13.90;99.90;;;-143.50;100.00;58913.53;5025592;28;20443;-77
2021/07/02 01:06:33;;;;;;;0.70;0.70;;;13.90;99.90;;;-143.50;100.00;58913.53;4992471;28;20446;-78
2021/07/02 01:09:04;;;;;;;0.70;0.70;;;13.80;99.90;;;-143.50;100.00;58913.53;4992479;28;20505;-77
2021/07/02 01:11:33;;;;;;;0.70;0.70;;;13.90;99.90;;;-143.50;100.00;58913.53;4976421;28;20916;-77
2021/07/02 01:14:03;;;;;;;0.70;0.70;;;13.80;99.90;;;-143.50;100.00;58913.53;4992682;28;20435;-77
2021/07/02 01:16:32;;;;;;;0.70;0.70;;;13.90;99.90;;;-143.50;100.00;58913.53;4992019;28;20954;-77
2021/07/02 01:19:01;;;;;;;0.70;0.60;;;13.90;99.90;;;-143.50;100.00;58913.53;4991320;28;20450;-76
2021/07/02 01:21:31;;;;;;;0.80;0.80;;;13.90;99.90;;;-143.50;100.00;58913.53;4992576;28;20461;-75
2021/07/02 01:24:01;;;;;;;0.70;0.60;;;13.90;99.90;;;-143.50;100.00;58913.53;4991600;28;20837;-75
2021/07/02 01:26:31;;;;;;;0.70;0.70;;;13.90;99.90;;;-143.50;100.00;58913.53;4991816;28;20446;-75
2021/07/02 01:29:00;;;;;;;0.70;0.60;;;13.90;99.90;;;-143.50;100.00;58913.53;5008914;28;20433;-76
2021/07/02 01:31:28;;;;;;;0.80;0.80;;;13.90;99.90;;;-143.50;100.00;58913.53;4992226;28;20443;-75
2021/07/02 01:33:55;;;;;;;0.70;0.70;;;13.90;99.90;;;-143.50;100.00;58913.53;4993499;28;20832;-75
2021/07/02 01:36:25;;;;;;;0.70;0.70;;;13.90;99.90;;;-143.50;100.00;58913.53;4993310;28;20936;-75
2021/07/02 01:39:03;;;;;;;0.70;0.70;;;13.90;99.90;;;-143.50;100.00;58913.53;4991874;28;20568;-76
2021/07/02 01:41:33;;;;;;;0.70;0.60;;;13.90;99.90;;;-143.50;100.00;58913.53;4992457;28;20438;-76
2021/07/02 01:44:03;;;;;;;0.70;0.70;;;13.90;99.90;;;-143.50;100.00;58913.53;4976728;28;20450;-76
2021/07/02 01:46:31;;;;;;;0.70;0.70;;;13.90;99.90;;;-143.50;100.00;58913.53;4991029;28;20456;-75
2021/07/02 01:49:00;;;;;;;0.70;0.60;;;13.90;99.90;;;-143.50;100.00;58913.53;4976113;28;20444;-75
2021/07/02 01:51:32;;;;;;;0.70;0.60;;;13.80;99.90;;;-143.50;100.00;58913.53;4992927;28;20466;-76
2021/07/02 01:54:04;;;;;;;0.70;0.60;;;13.80;99.90;;;-143.50;100.00;58913.53;4992137;28;20467;-75
2021/07/02 01:56:34;;;;;;;0.70;0.60;;;13.70;99.90;;;-143.50;100.00;58913.53;4992145;28;20452;-75
2021/07/02 01:59:02;;;;;;;0.70;0.70;;;13.60;99.90;;;-143.50;100.00;58913.53;4991424;28;20483;-75
2021/07/02 02:01:42;;;;;;;0.70;0.70;;;13.50;99.90;;;-143.50;100.00;58913.53;4987055;28;20476;-75
2021/07/02 02:04:15;;;;;;;0.70;0.70;;;13.50;99.90;;;-143.50;100.00;58913.53;4991829;28;21002;-75
2021/07/02 02:06:44;;;;;;;0.70;0.60;;;13.50;99.90;;;-143.50;100.00;58913.53;4993390;28;20427;-76
2021/07/02 02:09:14;;;;;;;0.70;0.60;;;13.40;99.90;;;-143.50;100.00;58913.53;4979536;28;20820;-75
2021/07/02 02:11:41;;;;;;;0.70;0.70;;;13.40;99.90;;;-143.50;100.00;58913.53;4995874;28;20454;-75
2021/07/02 02:14:13;;;;;;;0.70;0.70;;;13.40;99.90;;;-143.50;100.00;58913.53;4995637;28;20906;-76
2021/07/02 02:16:47;;;;;;;0.70;0.60;;;13.30;99.90;;;-143.50;100.00;58913.53;4995450;28;20483;-76
2021/07/02 02:19:19;;;;;;;0.70;0.60;;;13.30;99.90;;;-143.50;100.00;58913.53;5012374;28;20522;-75
2021/07/02 02:21:47;;;;;;;0.70;0.70;;;13.30;99.90;;;-143.50;100.00;58913.53;4994841;28;20482;-75
2021/07/02 02:24:16;;;;;;;0.70;0.60;;;13.20;99.90;;;-143.50;100.00;58913.53;4963056;28;20829;-75
2021/07/02 02:26:45;;;;;;;0.70;0.70;;;13.10;99.90;;;-143.50;100.00;58913.53;4996404;28;20432;-75
2021/07/02 02:29:14;;;;;;;0.70;0.60;;;13.10;99.90;;;-143.50;100.00;58913.53;4995251;28;20441;-75
2021/07/02 02:31:42;;;;;;;0.80;0.80;;;13.00;99.90;;;-143.50;100.00;58913.53;4995306;28;20534;-75
2021/07/02 02:34:16;;;;;;;0.70;0.60;;;13.00;99.90;;;-143.50;100.00;58913.53;4995050;28;20917;-75
2021/07/02 02:36:45;;;;;;;0.80;0.70;;;13.00;99.90;;;-143.50;100.00;58913.53;5011674;28;20460;-76
2021/07/02 02:39:18;;;;;;;0.70;0.60;;;12.90;99.90;;;-143.50;100.00;58913.53;5011333;28;20560;-76
2021/07/02 02:41:47;;;;;;;0.70;0.60;;;12.90;99.90;;;-143.50;100.00;58913.53;4982340;28;20510;-75
2021/07/02 02:44:14;;;;;;;0.70;0.60;;;12.90;99.90;;;-143.50;100.00;58913.53;4979303;28;20424;-75
2021/07/02 02:46:44;;;;;;;0.70;0.60;;;12.90;99.90;;;-143.50;100.00;58913.53;5027790;28;20797;-75
2021/07/02 02:49:12;;;;;;;0.80;0.80;;;12.90;99.90;;;-143.50;100.00;58913.53;4994973;28;20489;-75
2021/07/02 02:51:39;;;;;;;0.70;0.60;;;12.90;99.90;;;-143.50;100.00;58913.53;4995206;28;20482;-75
2021/07/02 02:54:07;;;;;;;0.70;0.70;;;12.90;99.90;;;-143.50;100.00;58913.53;4994489;28;20450;-76
2021/07/02 02:56:36;;;;;;;0.70;0.60;;;12.90;99.90;;;-143.50;100.00;58913.53;4994620;28;20534;-76
2021/07/02 02:59:04;;;;;;;0.70;0.60;;;12.90;99.90;;;-143.50;100.00;58913.53;4994978;28;20494;-75
2021/07/02 03:01:32;;;;;;;0.70;0.67;;;12.90;99.90;;;-143.50;100.00;58913.53;4995871;28;20470;-75
2021/07/02 03:04:00;;;;;;;0.70;0.70;;;13.00;99.90;;;-143.50;100.00;58913.53;4994455;28;20956;-75
2021/07/02 03:06:28;;;;;;;0.70;0.60;;;13.00;99.90;;;-143.50;100.00;58913.53;4995051;28;20438;-75
2021/07/02 03:08:55;;;;;;;0.70;0.70;;;13.00;99.90;;;-143.50;100.00;58913.53;4994645;28;20476;-75
2021/07/02 03:11:23;;;;;;;0.70;0.70;;;13.00;99.90;;;-143.50;100.00;58913.53;4994304;28;20443;-75
2021/07/02 03:13:53;;;;;;;0.70;0.70;;;13.00;99.90;;;-143.50;100.00;58913.53;4993599;28;20447;-75
2021/07/02 03:16:22;;;;;;;0.70;0.70;;;13.00;99.90;;;-143.50;100.00;58913.53;4985498;28;20853;-75
2021/07/02 03:18:51;;;;;;;0.70;0.67;;;13.00;99.90;;;-143.50;100.00;58913.53;4992900;28;20462;-76
2021/07/02 03:21:19;;;;;;;0.70;0.70;;;13.00;99.90;;;-143.50;100.00;58913.53;4977589;28;20519;-75
2021/07/02 03:23:47;;;;;;;0.70;0.60;;;13.00;99.90;;;-143.50;100.00;58913.53;4994205;28;20476;-75
2021/07/02 03:26:17;;;;;;;0.70;0.70;;;13.00;99.90;;;-143.50;100.00;58913.53;4994463;28;20485;-76
2021/07/02 03:28:47;;;;;;;0.80;0.80;;;13.00;99.90;;;-143.50;100.00;58913.53;4995142;28;20825;-75
2021/07/02 03:31:18;;;;;;;0.70;0.63;;;13.00;99.90;;;-143.50;100.00;58913.53;5026945;28;20443;-76
2021/07/02 03:33:47;;;;;;;0.70;0.63;;;12.90;99.90;;;-143.50;100.00;58913.53;4993979;28;20441;-75
2021/07/02 03:36:16;;;;;;;0.70;0.70;;;12.90;99.90;;;-143.50;100.00;58913.53;4993961;28;20927;-75
2021/07/02 03:38:45;;;;;;;0.80;0.80;;;12.90;99.90;;;-143.50;100.00;58913.53;4978019;28;20967;-75
2021/07/02 03:41:12;;;;;;;0.70;0.60;;;12.90;99.90;;;-143.50;100.00;58913.53;4994224;28;20463;-75
2021/07/02 03:43:40;;;;;;;0.70;0.60;;;12.90;99.90;;;-143.50;100.00;58913.53;4995697;28;20447;-75
2021/07/02 03:46:09;;;;;;;0.70;0.60;;;12.90;99.90;;;-143.50;100.00;58913.53;4994337;28;20448;-76
2021/07/02 03:48:40;;;;;;;0.70;0.70;;;12.80;99.90;;;-143.50;100.00;58913.53;4993864;28;20441;-75
2021/07/02 03:51:08;;;;;;;0.70;0.70;;;12.80;99.90;;;-143.50;100.00;58913.53;4993624;28;20436;-75
2021/07/02 03:53:36;;;;;;;0.70;0.70;;;12.80;99.90;;;-143.50;100.00;58913.53;4994779;28;20467;-75
2021/07/02 03:56:03;;;;;;;0.70;0.60;;;12.80;99.90;;;-143.50;100.00;58913.53;4994454;28;20522;-75
2021/07/02 03:58:31;;;;;;;0.70;0.60;;;12.80;99.90;;;-143.50;100.00;58913.53;4975664;28;20466;-75
2021/07/02 04:00:58;;;;;;;0.70;0.70;;;12.80;99.90;;;-143.50;100.00;58913.53;4958131;28;20589;-76
2021/07/02 04:03:28;;;;;;;0.70;0.70;;;12.80;99.90;;;-143.50;100.00;58913.53;4979640;28;20453;-75
2021/07/02 04:05:57;;;;;;;0.70;0.70;;;12.80;99.90;;;-143.50;100.00;58913.53;4994103;28;20453;-75
2021/07/02 04:08:24;;;;;;;0.70;0.60;;;12.70;99.90;;;-143.50;100.00;58913.53;5025955;28;20473;-75
2021/07/02 04:10:52;;;;;;;0.70;0.70;;;12.70;99.90;;;-143.50;100.00;58913.53;5025603;28;20470;-75
2021/07/02 04:13:20;;;;;;;0.70;0.70;;;12.60;99.90;;;-143.50;100.00;58913.53;5009038;28;20433;-75
2021/07/02 04:15:48;;;;;;;0.70;0.63;;;12.50;99.90;;;-143.50;100.00;58913.53;4993935;28;20824;-75
2021/07/02 04:18:16;;;;;;;0.80;0.70;;;12.50;99.90;;;-143.50;100.00;58913.53;4976923;28;20508;-75
2021/07/02 04:20:43;;;;;;;0.70;0.70;;;12.40;99.90;;;-143.50;100.00;58913.53;4975308;28;20894;-75
2021/07/02 04:23:13;;;;;;;0.70;0.70;;;12.30;99.90;;;-143.50;100.00;58913.53;4991015;28;20464;-75
2021/07/02 04:25:40;;;;;;;0.70;0.70;;;12.20;99.90;;;-143.50;100.00;58913.53;4992806;28;20526;-75
2021/07/02 04:28:08;;;;;;;0.70;0.70;;;12.20;99.90;;;-143.50;100.00;58913.53;4992860;28;20432;-75
2021/07/02 04:30:35;;;;;;;0.70;0.70;;;12.10;99.90;;;-143.50;100.00;58913.53;4991656;28;20517;-74
2021/07/02 04:33:03;;;;;;;0.77;0.77;;;12.10;99.90;;;-143.50;100.00;58913.53;4992720;28;20508;-74
2021/07/02 04:35:31;;;;;;;0.73;0.70;;;12.10;99.90;;;-143.50;100.00;58913.53;4992680;28;20993;-74
2021/07/02 04:37:59;;;;;;;0.70;0.60;;;12.10;99.90;;;-143.50;100.00;58913.53;4993157;28;20882;-74
2021/07/02 04:40:27;;;;;;;0.70;0.70;;;12.10;99.90;;;-143.50;100.00;58913.53;4994763;28;20508;-74
2021/07/02 04:42:55;;;;;;;0.70;0.70;;;12.00;99.90;;;-143.50;100.00;58913.53;4994508;28;20484;-75
2021/07/02 04:45:23;;;;;;;0.70;0.70;;;12.00;99.90;;;-143.50;100.00;58913.53;4993489;28;20467;-77
2021/07/02 04:47:51;;;;;;;0.70;0.70;;;11.90;99.90;;;-143.50;100.00;58913.53;4991548;28;20528;-77
2021/07/02 04:50:19;;;;;;;0.70;0.70;;;11.90;99.90;;;-143.50;100.00;58913.53;4991182;28;20444;-76
2021/07/02 04:52:47;;;;;;;0.70;0.60;;;11.80;99.90;;;-143.50;100.00;58913.53;4994574;28;20449;-76
2021/07/02 04:55:14;;;;;;;0.70;0.70;;;11.80;99.90;;;-143.50;100.00;58913.53;4994417;28;20446;-76
2021/07/02 04:57:43;;;;;;;0.70;0.70;;;11.70;99.90;;;-143.50;100.00;58913.53;4994054;28;20435;-76
2021/07/02 05:00:13;;;;;;;0.80;0.80;;;11.70;99.90;;;-143.50;100.00;58913.53;4993991;28;20470;-76
2021/07/02 05:02:40;;;;;;;0.80;0.77;;;11.70;99.90;;;-143.50;100.00;58913.53;4992436;28;20445;-76
2021/07/02 05:05:09;;;;;;;0.70;0.70;;;11.70;99.90;;;-143.50;100.00;58913.53;4993013;28;20468;-76
2021/07/02 05:07:39;;;;;;;0.73;0.70;;;11.80;99.90;;;-143.50;100.00;58913.53;4992566;28;20426;-76
2021/07/02 05:10:09;;;;;;;0.70;0.60;;;11.80;99.90;;;-143.50;100.00;58913.53;4993203;28;20438;-76
2021/07/02 05:12:38;;;;;;;0.70;0.70;;;11.90;99.90;;;-143.50;100.00;58913.53;4989129;28;20926;-76
2021/07/02 05:15:09;;;;;;;0.80;0.80;;;12.00;99.90;;;-143.50;100.00;58913.53;4989435;28;20501;-76
2021/07/02 05:17:36;;;;;;;0.70;0.60;;;12.00;99.90;;;-143.50;100.00;58913.53;5008495;28;20457;-73
2021/07/02 05:20:06;;;;;;;0.80;0.73;;;12.10;99.90;;;-143.50;100.00;58913.53;4992222;28;20851;-76
2021/07/02 05:22:34;;;;;;;0.70;0.70;;;12.20;99.90;;;-143.50;100.00;58913.53;4992130;28;20466;-73
2021/07/02 05:25:02;;;;;;;0.80;0.80;;;12.30;99.90;;;-143.50;100.00;58913.53;4992259;28;20781;-76
2021/07/02 05:27:30;;;;;;;1.53;1.43;;;12.30;99.90;;;-143.50;100.00;58913.53;4993696;28;20446;-76
2021/07/02 05:29:58;;;;;;;0.70;0.70;;;12.40;99.90;;;-143.50;100.00;58913.53;4992718;28;20421;-76
2021/07/02 05:32:26;;;;;;;0.80;0.80;;;12.50;99.90;;;-143.50;100.00;58913.53;4993469;28;20832;-76
2021/07/02 05:35:08;;;;;;;0.70;0.70;;;12.60;99.90;;;-143.50;100.00;58913.53;4993387;28;20414;-76
2021/07/02 05:37:41;;;;;;;0.70;0.60;;;12.60;99.90;;;-143.50;100.00;58913.53;4992433;28;20798;-75
2021/07/02 05:40:11;;;;;;;0.70;0.60;;;12.70;99.90;;;-143.50;100.00;58913.53;4992439;28;20450;-76
2021/07/02 05:42:39;;;;;;;0.80;0.73;;;12.80;99.90;;;-143.50;100.00;58913.53;4994482;28;20466;-76
2021/07/02 05:45:08;;;;;;;0.70;0.60;;;12.80;99.90;;;-143.50;100.00;58913.53;4996527;28;20463;-76
2021/07/02 05:47:38;;;;;;;0.70;0.70;;;12.80;99.90;;;-143.50;100.00;58913.53;4996263;28;20449;-76
2021/07/02 05:50:08;;;;;;;0.70;0.70;;;12.90;99.90;;;-143.50;100.00;58913.53;4996465;28;20478;-76
2021/07/02 05:52:35;;;;;;;0.70;0.70;;;12.90;99.90;;;-143.50;100.00;58913.53;4996398;28;20493;-76
2021/07/02 05:55:04;;;;;;;0.80;0.70;;;13.00;99.90;;;-143.50;100.00;58913.53;4995913;28;20454;-75
2021/07/02 05:57:32;;;;;;;0.70;0.60;;;13.10;99.90;;;-143.50;100.00;58913.53;4997426;28;20442;-75
2021/07/02 06:00:00;;;;;;;0.70;0.60;;;13.10;99.90;;;-143.50;100.00;58913.53;4995859;28;20440;-75
2021/07/02 06:02:27;;;;;;;0.80;0.70;;;13.20;99.90;;;-143.50;100.00;58913.53;4995627;28;20550;-75
2021/07/02 06:04:56;;;;;;;0.70;0.70;;;13.20;99.90;;;-143.50;100.00;58913.53;4996872;28;20997;-75
2021/07/02 06:07:23;;;;;;;0.70;0.60;;;13.40;99.90;;;-143.50;100.00;58913.53;4995934;28;20491;-75
2021/07/02 06:09:51;;;;;;;0.70;0.60;;;13.50;99.90;;;-143.50;100.00;58913.53;4997187;28;20482;-75
2021/07/02 06:12:18;;;;;;;0.70;0.70;;;13.60;99.90;;;-143.50;100.00;58913.53;4996019;28;20929;-74
2021/07/02 06:14:46;;;;;;;0.90;0.90;;;13.80;99.90;;;-143.50;100.00;58913.53;4997020;28;20435;-75
2021/07/02 06:17:13;;;;;;;0.70;0.60;;;13.90;99.90;;;-143.50;100.00;58913.53;4996550;28;20448;-75
2021/07/02 06:19:41;;;;;;;0.70;0.70;;;14.10;99.90;;;-143.50;100.00;58913.53;4996722;28;20806;-75
2021/07/02 06:22:10;;;;;;;0.70;0.60;;;14.20;99.90;;;-143.50;100.00;58913.53;4996741;28;20458;-74
2021/07/02 06:24:38;;;;;;;0.70;0.70;;;14.10;99.90;;;-143.50;100.00;58913.53;4996210;28;20452;-74
2021/07/02 06:27:06;;;;;;;0.70;0.70;;;14.20;99.90;;;-143.50;100.00;58913.53;4993586;28;20469;-75
2021/07/02 06:29:33;;;;;;;0.77;0.77;;;14.20;99.90;;;-143.50;100.00;58913.53;5011889;28;20422;-76
2021/07/02 06:32:01;;;;;;;0.70;0.70;;;14.20;99.90;;;-143.50;100.00;58913.53;4996714;28;20408;-75
2021/07/02 06:34:29;;;;;;;0.70;0.70;;;14.30;99.90;;;-143.50;100.00;58913.53;4995148;28;20780;-75
2021/07/02 06:36:56;;;;;;;0.70;0.70;;;14.40;99.90;;;-143.50;100.00;58913.53;4995130;28;20442;-75
2021/07/02 06:39:25;;;;;;;0.70;0.60;;;14.50;99.90;;;-143.50;100.00;58913.53;4996410;28;20442;-75
2021/07/02 06:41:53;;;;;;;0.70;0.70;;;14.50;99.90;;;-143.50;100.00;58913.53;4996481;28;20490;-75
2021/07/02 06:44:22;;;;;;;0.70;0.70;;;14.60;99.90;;;-143.50;100.00;58913.53;4996399;28;20578;-75
2021/07/02 06:47:13;;;;;;;0.70;0.70;;;14.70;99.90;;;-143.50;100.00;58913.53;4996372;28;20509;-75
2021/07/02 06:49:41;;;;;;;2.33;2.23;;;15.00;99.90;;;-143.50;100.00;58913.53;4996314;28;20429;-74
2021/07/02 06:52:08;;;;;;;0.77;0.67;;;15.20;99.90;;;-143.50;100.00;58913.53;4996561;28;20462;-74
2021/07/02 06:54:37;;;;;;;0.70;0.60;;;15.40;99.90;;;-143.50;100.00;58913.53;4993872;28;20463;-75
2021/07/02 06:57:08;;;;;;;0.70;0.60;;;15.50;99.90;;;-143.50;100.00;58913.53;4994697;28;20443;-74
2021/07/02 06:59:37;;;;;;;0.87;0.87;;;15.60;99.90;;;-143.50;100.00;58913.53;4995122;28;20942;-74
2021/07/02 07:02:08;;;;;;;0.70;0.70;;;15.70;99.90;;;-143.50;100.00;58913.53;4994708;28;20534;-74
2021/07/02 07:04:37;;;;;;;0.80;0.70;;;15.90;99.90;;;-143.50;100.00;58913.53;4995167;28;20456;-74
2021/07/02 07:07:06;;;;;;;0.70;0.60;;;16.10;99.90;;;-143.50;100.00;58913.53;4996292;28;20430;-75
2021/07/02 07:09:36;;;;;;;0.70;0.60;;;16.40;99.90;;;-143.50;100.00;58913.53;4994034;28;20465;-74
2021/07/02 07:12:07;;;;;;;0.70;0.70;;;16.60;99.90;;;-143.50;100.00;58913.53;4994723;28;20441;-74
2021/07/02 07:14:34;;;;;;;0.70;0.60;;;16.70;99.90;;;-143.50;100.00;58913.53;4995277;28;20418;-74
2021/07/02 07:17:04;;;;;;;0.80;0.70;;;16.80;99.90;;;-143.50;100.00;58913.53;4996073;28;20521;-74
2021/07/02 07:19:33;;;;;;;0.70;0.63;;;16.80;99.90;;;-143.50;100.00;58913.53;4995043;28;20449;-74
2021/07/02 07:22:00;;;;;;;0.70;0.60;;;16.80;99.90;;;-143.50;100.00;58913.53;4994799;28;20459;-74
2021/07/02 07:24:28;;;;;;;0.70;0.60;;;16.90;99.90;;;-143.50;100.00;58913.53;4995660;28;20457;-75
2021/07/02 07:26:56;;;;;;;1.53;1.00;;;17.00;99.90;;;-143.50;100.00;58913.53;4995761;28;20415;-74
2021/07/02 07:29:25;;;;;;;0.70;0.60;;;17.00;99.90;;;-143.50;100.00;58913.53;4995799;28;20512;-75
2021/07/02 07:31:54;;;;;;;0.70;0.60;;;17.20;99.90;;;-143.50;100.00;58913.53;4994983;28;20418;-75
2021/07/02 07:37:06;;;;;;;0.70;0.60;;;17.70;99.90;;;-143.50;100.00;58913.53;4995697;28;20497;-74
2021/07/02 07:39:33;;;;;;;0.70;0.60;;;17.90;99.90;;;-143.50;100.00;58913.53;4994257;28;20516;-75
2021/07/02 07:42:01;;;;;;;0.70;0.60;;;18.10;99.90;;;-143.50;100.00;58913.53;4995694;28;20437;-74
2021/07/02 07:44:30;;;;;;;0.70;0.60;;;18.30;99.90;;;-143.50;100.00;58913.53;4994396;28;20801;-75
2021/07/02 07:46:58;;;;;;;0.70;0.60;;;18.50;99.90;;;-143.50;100.00;58913.53;4994640;28;20889;-74
2021/07/02 07:49:26;;;;;;;0.80;0.70;;;18.50;99.90;;;-143.50;100.00;58913.53;4995011;28;20417;-74
2021/07/02 07:54:21;;;;;;;0.70;0.60;;;19.30;99.90;;;-143.50;100.00;58913.53;4995258;28;20929;-73
2021/07/02 07:56:51;;;;;;;0.70;0.60;;;19.50;99.90;;;-143.50;100.00;58913.53;4995248;28;20427;-74
2021/07/02 07:59:20;;;;;;;0.80;0.73;;;19.70;99.90;;;-143.50;100.00;58913.53;4995209;28;20437;-74
2021/07/02 08:01:49;;;;;;;0.80;0.70;;;19.90;99.90;;;-143.50;100.00;58913.53;4993678;28;20498;-73
2021/07/02 08:04:17;;;;;;;0.70;0.60;;;20.00;99.90;;;-143.50;100.00;58913.53;4987866;28;20427;-73
2021/07/02 08:06:46;;;;;;;0.80;0.70;;;20.20;99.90;;;-143.50;100.00;58913.53;4994555;28;20818;-74
2021/07/02 08:09:14;;;;;;;0.73;0.60;;;20.40;99.90;;;-143.50;100.00;58913.53;4993272;28;20462;-73
2021/07/02 08:11:44;;;;;;;0.80;0.70;;;20.40;99.90;;;-143.50;100.00;58913.53;4994571;28;20439;-74
2021/07/02 08:14:14;;;;;;;0.80;0.60;;;20.50;99.90;;;-143.50;100.00;58913.53;4993966;28;20477;-74
2021/07/02 08:16:42;;;;;;;0.70;0.60;;;20.50;99.90;;;-143.50;100.00;58913.53;4994697;28;20441;-73
2021/07/02 08:19:11;;;;;;;0.70;0.60;;;20.40;99.90;;;-143.50;100.00;58913.53;4992984;28;20431;-74
2021/07/02 08:21:38;;;;;;;0.80;0.70;;;20.50;99.90;;;-143.50;100.00;58913.53;4994476;28;20825;-74
2021/07/02 08:24:06;;;;;;;0.70;0.60;;;20.60;99.90;;;-143.50;100.00;58913.53;4994371;28;20450;-74
2021/07/02 08:26:33;;;;;;;0.70;0.60;;;20.90;99.90;;;-143.50;100.00;58913.53;4994712;28;20431;-74
2021/07/02 08:31:47;;;;;;;0.77;0.67;;;21.50;99.90;;;-143.50;100.00;58913.53;4994392;28;20416;-73
2021/07/02 08:34:16;;;;;;;0.70;0.60;;;21.80;99.90;;;-143.50;100.00;58913.53;4975164;28;20519;-73
2021/07/02 08:36:44;;;;;;;0.70;0.60;;;21.80;99.90;;;-143.50;100.00;58913.53;4974673;28;20522;-74
2021/07/02 08:39:12;;;;;;;0.70;0.60;;;21.50;99.90;;;-143.50;100.00;58913.53;4975474;28;20475;-74
2021/07/02 08:41:40;;;;;;;0.80;0.60;;;21.60;99.90;;;-143.50;100.00;58913.53;4994161;28;20478;-74
2021/07/02 08:44:07;;;;;;;0.80;0.60;;;21.50;99.90;;;-143.50;100.00;58913.53;4994559;28;20422;-73
2021/07/02 08:46:36;;;;;;;0.70;0.60;;;21.50;99.90;;;-143.50;100.00;58913.53;4992846;28;20465;-74
2021/07/02 08:49:27;;;;;;;0.70;0.60;;;21.80;99.90;;;-143.50;100.00;58913.53;4992766;28;20434;-71
2021/07/02 08:51:55;;;;;;;0.70;0.60;;;22.10;99.90;;;-143.50;100.00;58913.53;4992942;28;20431;-73
2021/07/02 08:54:23;;;;;;;0.70;0.67;;;22.30;99.90;;;-143.50;100.00;58913.53;4994168;28;20542;-72
2021/07/02 08:56:57;;;;;;;0.70;0.57;;;22.10;99.90;;;-143.50;100.00;58913.53;4994066;28;20435;-73
2021/07/02 08:59:25;;;;;;;0.70;0.60;;;21.90;99.90;;;-143.50;100.00;58913.53;4993313;28;20446;-73
2021/07/02 09:01:53;;;;;;;0.70;0.60;;;21.70;99.90;;;-143.50;100.00;58913.53;4993515;28;20868;-73
2021/07/02 09:04:25;;;;;;;0.70;0.60;;;21.70;99.90;;;-143.50;100.00;58913.53;4992934;28;20442;-73
2021/07/02 09:07:09;;;;;;;0.70;0.60;;;21.80;99.90;;;-143.50;100.00;58913.53;4992757;28;20485;-73
2021/07/02 09:09:54;;;;;;;0.70;0.50;;;22.20;99.90;;;-143.50;100.00;58913.53;4995511;28;20485;-72
2021/07/02 09:12:25;;;;;;;0.70;0.60;;;22.60;99.90;;;-143.50;100.00;58913.53;5009522;28;20435;-73
2021/07/02 09:15:13;;;;;;;0.70;0.50;;;23.00;99.90;;;-143.50;100.00;58913.53;4993533;28;20430;-71
2021/07/02 09:17:55;;;;;;;0.70;0.60;;;23.00;99.10;;;-143.50;100.00;58913.53;4972493;28;20432;-72
2021/07/02 09:20:27;;;;;;;0.70;0.60;;;23.50;95.80;;;-143.50;100.00;58913.53;4974564;28;20853;-73
2021/07/02 09:22:58;;;;;;;0.70;0.50;;;23.80;91.50;;;-143.50;100.00;58913.53;4974067;28;20502;-74
2021/07/02 09:25:29;;;;;;;0.80;0.67;;;24.00;82.10;;;-143.50;100.00;58913.53;4973089;28;20413;-73
2021/07/02 09:28:21;;;;;;;0.70;0.50;;;23.90;69.30;;;-143.50;100.00;58913.53;4974528;28;20408;-74
2021/07/02 09:30:52;;;;;;;0.70;0.50;;;23.70;68.80;;;-143.50;100.00;58913.53;4974144;28;20483;-73
2021/07/02 09:33:22;;;;;;;0.70;0.50;;;23.60;72.00;;;-143.50;100.00;58913.53;4992155;28;20838;-74
2021/07/02 09:35:54;;;;;;;0.70;0.60;;;23.60;73.40;;;-143.50;100.00;58913.53;4992287;28;20427;-74
2021/07/02 09:38:33;;;;;;;0.70;0.50;;;23.60;64.00;;;-143.50;100.00;58913.53;4993716;28;20454;-74
2021/07/02 09:41:03;;;;;;;0.73;0.67;;;23.30;61.00;;;-143.50;100.00;58913.53;4992230;28;20442;-74
2021/07/02 09:43:31;;;;;;;0.70;0.50;;;23.20;63.70;;;-143.50;100.00;58913.53;4991571;28;20486;-74
2021/07/02 09:46:04;;;;;;;0.70;0.60;;;23.20;62.50;;;-143.50;100.00;58913.53;4993808;28;20441;-75
2021/07/02 09:48:42;;;;;;;0.70;0.50;;;23.30;61.90;;;-143.50;100.00;58913.53;4993542;28;20450;-75
2021/07/02 09:51:11;;;;;;;0.70;0.50;;;23.60;64.60;;;-143.50;100.00;58913.53;4993404;28;20410;-76
2021/07/02 09:53:40;;;;;;;0.70;0.60;;;23.90;59.70;;;-143.50;100.00;58913.53;4993197;28;20802;-76
2021/07/02 09:56:18;;;;;;;0.70;0.50;;;24.30;57.60;;;-143.50;100.00;58913.53;4993645;28;20449;-74
2021/07/02 09:58:46;;;;;;;0.70;0.60;;;24.70;61.70;;;-143.50;100.00;58913.53;4992180;28;20431;-74
2021/07/02 10:01:26;;;;;;;0.70;0.50;;;24.90;59.40;;;-143.50;100.00;58913.53;4993013;28;20517;-74
2021/07/02 10:03:54;;;;;;;0.70;0.50;;;24.40;54.70;;;-143.50;100.00;58913.53;4993186;28;20485;-74
2021/07/02 10:06:25;;;;;;;0.70;0.50;;;24.20;53.90;;;-143.50;100.00;58913.53;4993318;28;20878;-73
2021/07/02 10:08:55;;;;;;;0.70;0.50;;;23.90;56.90;;;-143.50;100.00;58913.53;4993564;28;20541;-74
2021/07/02 10:11:24;;;;;;;0.70;0.50;;;23.60;54.50;;;-143.50;100.00;58913.53;4993108;28;20415;-73
2021/07/02 10:13:51;;;;;;;0.70;0.50;;;23.20;59.70;;;-143.50;100.00;58913.53;4993292;28;20816;-73
2021/07/02 10:16:20;;;;;;;0.70;0.50;;;23.30;60.60;;;-143.50;100.00;58913.53;5008729;28;20462;-73
2021/07/02 10:18:50;;;;;;;0.70;0.50;;;24.30;56.60;;;-143.50;100.00;58913.53;4993021;28;20415;-73